EA1IEJ-1
43.31.81N 005.40.64W
IN73DM aprs.fi
zuletzt gehoert:
2022-10-02T00:01:02Z
zuerst gehoert:
2022-07-16T15:30:13Z

APRS Gijón/Xixón [IN73DM], 2 Stunde(n), EA1IEJ-1 [02:23:18, 0s].
EA1FFA 43.31.53N 005.40.64WIN73DM 0.358km 286°WNW00:01:19ZMMDVM MMDVM HS Hat 438.8000/438.8000 CC1(3EA1FFA-1)
EA1IEJ 43.31.81N 005.40.64WIN73DM 0.708km 331°NNW00:01:02ZMMDVM DMO 222.3400/222.3400 CC1(3EA1IEJ-11)
MMDVM MMDVM HS Hat 438.8500/438.8500 CC6(2EA1IEJ-1)
EA1FPN 43.32.39N 005.42.17WIN73DM 2.926km 305°NW00:00:40ZMMDVM MMDVM HS Hat 439.8750/439.8750 CC1
EB1TK 43.32.22N 005.42.32WIN73DM 2.944km 298°WNW00:20:15ZWind 227°/000kn, Böen bis 001kn, Temp 18.33c, Regen 0.0mm, letzte 24h 0.0mm, seit 0h 0.0mm, Baro 1028.9h, Hum: 90%(3EB1TK-13)
LEEL 43.32.98N 005.41.71WIN73DN 3.299km 327°NNW00:00:06ZHelipuerto de El Musel: LEAS 012300Z VRB02KT 9999 OVC023 18/15 Q1026 NOSIG=
EA4ACU 43.29.56N 005.38.92WIN73EL 4.052km 151°SSE00:01:34ZMMDVM MMDVM HS Hat 432.7000/432.7000 CC1(3EA4ACU-1)
EB1GEM 43.30.00N 005.36.07WIN73EM 6.410km 115°ESE00:16:30ZWX3in1Plus2.0 U=13.3V,T=??.?C/??.?F(3EB1GEM-3)
ED1ZAE 43.27.97N 005.40.54WIN73DL 6.500km 182°S00:05:18Z400 M. PICO SAN MARTIN (GIJON) 13.2V,26.1C(3ED1ZAE-3)
2m Voice 145.5875 -0.600 Mhz(2ED1ZAE-C)
ED1ZAS 43.27.52N 005.40.17WIN73DL 7.335km 178°S00:00:19ZRD985 438.2250/430.6250 CC1
EA1IPU 43.26.21N 005.46.62WIN73CK 12.865km 221°SW00:01:01ZMMDVM MMDVM HS Hat 439.8000/439.8000 CC1(3EA1IPU-1)
EA1JW 43.31.35N 005.28.83WIN73GM 15.526km 91°E00:00:41ZMMDVM MMDVM HS Hat 436.5000/436.5000 CC1(3EA1JW-3)
EA1ABW 43.24.77N 005.47.77WIN73CJ 15.916km 219°SW00:00:29ZMMDVM MMDVM HS Hat 439.8250/439.8250 CC1(3EA1ABW-2)
LEGM 43.26.15N 005.49.84WIN73CK 16.095km 232°SW00:00:05ZHelipuerto de La Morgal (123.500MHz): LEAS 012300Z VRB02KT 9999 OVC023 18/15 Q1026 NOSIG=
LEMR 43.25.83N 005.49.60WIN73CK 16.240km 230°SW00:00:06ZAerodromo de la Morgal (123.500MHz): LEAS 012300Z VRB02KT 9999 OVC023 18/15 Q1026 NOSIG=
EA1FLQ 43.22.00N 005.36.35WIN73EI 18.392km 163°SSE00:01:24ZMMDVM DVMega 430.9750/430.9750 CC1
EA1AHA 43.32.72N 005.54.38WIN73BN 18.942km 277°W00:02:06ZMMDVM MMDVM HS Hat 432.0000/432.0000 CC1
Wind 000°/000kn, Böen bis 000kn, Temp 18.89c, Regen 0.0mm, letzte 24h 0.0mm, seit 0h 0.0mm, Baro 1027.7h, Hum: 78%(2EA1AHA-13)
EA1FHR 43.28.72N 005.26.41WIN73GL 19.456km 105°ESE00:00:54ZMMDVM MMDVM HS Hat 439.1500/439.1500 CC1
EA1HWD 43.28.96N 005.26.30WIN73GL 19.499km 104°ESE00:01:20ZMMDVM MMDVM HS Hat 434.2500/434.2500 CC1
LEHU 43.22.63N 005.49.57WIN73CJ 20.550km 217°SW00:00:05ZHelipuerto del HUCA: LEAS 012300Z VRB02KT 9999 OVC023 18/15 Q1026 NOSIG=
ED1ZAY 43.29.47N 005.56.54WIN73AL 22.041km 260°W00:00:14ZRD625 438.3000/430.7000 CC1
ED1ZAU 43.23.04N 005.52.75WIN73BJ 22.848km 227°SW00:00:14ZRD625 438.5000/430.9000 CC1
EA1JBU 43.21.85N 005.51.13WIN73BI 22.982km 219°SW00:00:07ZEA1JBU(3EA1JBU-1)
33D00 43.21.63N 005.51.13WIN73BI 23.293km 218°SW00:01:41Z33-D-00 Protección Civil REMER / Delegación del Gobierno en Asturias
EA1JAY 43.21.54N 005.51.34WIN73BI 23.607km 219°SW00:00:07ZEA1JAY(3EA1JAY-2)
434.525MHz Nodo TETRA DMO(2EA1JAY-4)
EA1HJA 43.21.47N 005.52.09WIN73BI 24.336km 220°SW00:20:02ZEA1HJA@URE.ES(3EA1HJA-2)
IN73FL WX3IN1+ 2.0 - V=13.4V,TX TEMP=45.4C(2EA1HJA)
EA1L 43.20.37N 005.51.13WIN73BI 25.151km 215°SW00:20:05Zea1l@ure.es V=13.0V
Wind 083°/000kn, Böen bis 003kn, Temp 17.78c, Regen 0.0mm, letzte 24h 0.0mm, seit 0h 0.0mm, Baro 1024.7h, Hum: 94%(2EA1L-13)
EA1HWX 43.19.28N 005.50.98WIN73BH 26.737km 212°SSW00:01:41ZDMO - UHF 439.7250/431.0000 CC11(3EA1HWX-2)
MMDVM DMO 222.3400/222.3400 CC1(2EA1HWX-10)
EA1JBE 43.30.90N 005.16.15WIN73IM 32.580km 92°E00:15:04ZDario(3EA1JBE-7)
Dario(2EA1JBE-13)
MAIN QTH http://qrz.com/db/ea1jbe(2EA1JBE-1)
EA1IMW 43.14.36N 005.46.93WIN73CF 32.935km 196°SSW00:01:45ZGRUPO RADIO GALENA (GRG) 430.4500/430.4500 CC1(3EA1IMW-1)
EB1DGC 43.12.60N 005.45.59WIN73CF 35.693km 191°S00:00:42ZMMDVM MMDVM HS Hat 433.4500/433.4500 CC1
EA1JBL 43.12.28N 005.47.42WIN73CE 36.814km 195°SSW00:00:31ZMMDVM DVMega 435.3000/435.3000 CC1
EA1HWA 43.12.00N 005.47.40WIN73CE 37.323km 195°SSW00:00:49ZMMDVM MMDVM HS Hat 433.4500/433.4500 CC1
EA1DZR 43.12.88N 005.24.00WIN73HF 40.919km 147°SSE00:10:51ZMMDVM MMDVM HS Hat 432.2000/432.2000 CC2(3EA1DZR-2)
MMDVM DVMega 431.1000/431.1000 CC1(2EA1DZR-1)
MMDVM DV ADER 434.3500/434.3500 CC1(2EA1DZR-4)
440 MMDVM Voice 433.10000MHz +0.0000MHz, APRS for DMRGateway(2EA1DZR-D)
EA1RCG 43.09.45N 005.49.78WIN73CD 42.736km 197°SSW00:00:33ZGRUPO RADIO GALENA (GRG) 430.4500/430.4500 CC1(3EA1RCG-3)
ED1ZAD 43.07.90N 005.38.52WIN73ED 43.757km 177°S00:09:58ZED1ZAD-3 APRS Digi/Igate(3ED1ZAD-3)
EC1KV 43.34.01N 006.16.01WIN63UN 48.076km 276°W00:16:22ZALBUERNE(3EC1KV-1)

aprs.pl 5.0.011w DL3EL © 2006-2021 [5741147]